createdAt,value
2022-11-21T00:01:59.165Z,97766.00
2022-11-21T00:04:46.651Z,97765.00
2022-11-21T00:07:34.519Z,97768.00
2022-11-21T00:10:23.531Z,97757.00
2022-11-21T00:13:29.173Z,97761.00
2022-11-21T00:16:17.063Z,97754.00
2022-11-21T00:19:04.521Z,97752.00
2022-11-21T00:21:51.945Z,97754.00
2022-11-21T00:24:39.506Z,97748.00
2022-11-21T00:27:27.021Z,97751.00
2022-11-21T00:30:15.059Z,97748.00
2022-11-21T00:33:02.542Z,97761.00
2022-11-21T00:35:50.181Z,97786.00
2022-11-21T00:38:38.193Z,97781.00
2022-11-21T00:41:25.642Z,97798.00
2022-11-21T00:44:13.237Z,97793.00
2022-11-21T00:47:00.758Z,97761.00
2022-11-21T00:49:48.272Z,97754.00
2022-11-21T00:52:35.756Z,97754.00
2022-11-21T00:55:25.090Z,97757.00
2022-11-21T00:58:12.573Z,97752.00
2022-11-21T01:01:14.411Z,97751.00
2022-11-21T01:04:01.861Z,97753.00
2022-11-21T01:06:49.405Z,97750.00
2022-11-21T01:09:36.947Z,97745.00
2022-11-21T01:12:24.606Z,97751.00
2022-11-21T01:15:12.362Z,97741.00
2022-11-21T01:17:59.993Z,97741.00
2022-11-21T01:20:47.476Z,97732.00
2022-11-21T01:23:35.106Z,97721.00
2022-11-21T01:26:26.052Z,97714.00
2022-11-21T01:29:14.045Z,97719.00
2022-11-21T01:32:01.501Z,97716.00
2022-11-21T01:34:48.931Z,97716.00
2022-11-21T01:37:36.382Z,97727.00
2022-11-21T01:40:23.907Z,97729.00
2022-11-21T01:43:16.657Z,97739.00
2022-11-21T01:46:14.990Z,97733.00
2022-11-21T01:49:29.668Z,97738.00
2022-11-21T01:52:28.660Z,97739.00
2022-11-21T01:55:16.750Z,97738.00
2022-11-21T01:58:05.196Z,97739.00
2022-11-21T02:00:53.082Z,97735.00
2022-11-21T02:03:43.994Z,97736.00
2022-11-21T02:06:35.096Z,97736.00
2022-11-21T02:09:23.957Z,97730.00
2022-11-21T02:12:38.650Z,97741.00
2022-11-21T02:15:29.709Z,97738.00
2022-11-21T02:18:17.159Z,97748.00
2022-11-21T02:21:23.777Z,97747.00
2022-11-21T02:24:33.695Z,97743.00
2022-11-21T02:27:21.686Z,97747.00
2022-11-21T02:30:11.462Z,97731.00
2022-11-21T02:32:59.472Z,97744.00
2022-11-21T02:36:01.515Z,97737.00
2022-11-21T02:38:49.031Z,97728.00
2022-11-21T02:41:51.698Z,97724.00
2022-11-21T02:44:54.325Z,97708.00
2022-11-21T02:47:43.903Z,97713.00
2022-11-21T02:50:40.922Z,97717.00
2022-11-21T02:53:28.439Z,97712.00
2022-11-21T02:56:15.956Z,97702.00
2022-11-21T02:59:03.842Z,97714.00
2022-11-21T03:01:51.292Z,97710.00
2022-11-21T03:04:38.830Z,97701.00
2022-11-21T03:07:26.352Z,97697.00
2022-11-21T03:10:14.745Z,97697.00
2022-11-21T03:13:02.200Z,97697.00
2022-11-21T03:15:49.761Z,97678.00
2022-11-21T03:18:37.168Z,97688.00
2022-11-21T03:21:24.816Z,97688.00
2022-11-21T03:24:12.326Z,97685.00
2022-11-21T03:26:59.930Z,97680.00
2022-11-21T03:29:47.477Z,97685.00
2022-11-21T03:32:35.202Z,97679.00
2022-11-21T03:35:22.987Z,97675.00
2022-11-21T03:38:10.541Z,97677.00
2022-11-21T03:40:58.135Z,97664.00
2022-11-21T03:43:45.651Z,97678.00
2022-11-21T03:46:37.336Z,97674.00
2022-11-21T03:49:25.291Z,97673.00
2022-11-21T03:52:12.880Z,97663.00
2022-11-21T03:55:00.295Z,97663.00
2022-11-21T03:57:47.942Z,97672.00
2022-11-21T04:00:35.525Z,97658.00
2022-11-21T04:03:23.071Z,97663.00
2022-11-21T04:06:13.861Z,97659.00
2022-11-21T04:09:01.388Z,97662.00
2022-11-21T04:11:48.845Z,97651.00
2022-11-21T04:14:36.336Z,97655.00
2022-11-21T04:17:23.756Z,97644.00
2022-11-21T04:20:11.878Z,97651.00
2022-11-21T04:22:59.405Z,97655.00
2022-11-21T04:25:46.821Z,97641.00
2022-11-21T04:28:34.430Z,97647.00
2022-11-21T04:31:21.903Z,97642.00
2022-11-21T04:34:09.297Z,97637.00
2022-11-21T04:36:56.785Z,97634.00
2022-11-21T04:39:44.349Z,97639.00
2022-11-21T04:42:31.831Z,97633.00
2022-11-21T04:45:19.281Z,97624.00
2022-11-21T04:48:07.058Z,97633.00
2022-11-21T04:50:54.545Z,97623.00
2022-11-21T04:53:43.347Z,97624.00
2022-11-21T04:56:31.175Z,97618.00
2022-11-21T04:59:18.630Z,97606.00
2022-11-21T05:02:06.250Z,97605.00
2022-11-21T05:04:53.687Z,97612.00
2022-11-21T05:07:41.395Z,97608.00
2022-11-21T05:10:29.063Z,97603.00
2022-11-21T05:13:22.786Z,97613.00
2022-11-21T05:16:10.201Z,97606.00
2022-11-21T05:18:57.622Z,97605.00
2022-11-21T05:21:45.111Z,97595.00
2022-11-21T05:24:32.755Z,97587.00
2022-11-21T05:27:20.236Z,97588.00
2022-11-21T05:30:08.537Z,97580.00
2022-11-21T05:32:56.061Z,97577.00
2022-11-21T05:35:43.958Z,97573.00
2022-11-21T05:38:31.682Z,97574.00
2022-11-21T05:41:19.141Z,97579.00
2022-11-21T05:44:06.664Z,97577.00
2022-11-21T05:46:54.171Z,97579.00
2022-11-21T05:49:41.582Z,97579.00
2022-11-21T05:52:29.467Z,97582.00
2022-11-21T05:55:17.172Z,97577.00
2022-11-21T05:58:04.612Z,97581.00
2022-11-21T06:00:59.863Z,97584.00
2022-11-21T06:03:47.623Z,97581.00
2022-11-21T06:06:36.215Z,97569.00
2022-11-21T06:09:23.735Z,97568.00
2022-11-21T06:12:11.158Z,97564.00
2022-11-21T06:14:58.672Z,97566.00
2022-11-21T06:17:46.161Z,97570.00
2022-11-21T06:20:33.506Z,97566.00
2022-11-21T06:23:21.228Z,97561.00
2022-11-21T06:26:15.252Z,97570.00
2022-11-21T06:29:02.767Z,97565.00
2022-11-21T06:31:50.980Z,97570.00
2022-11-21T06:34:38.466Z,97570.00
2022-11-21T06:37:25.932Z,97570.00
2022-11-21T06:40:13.616Z,97567.00
2022-11-21T06:43:01.951Z,97566.00
2022-11-21T06:45:49.317Z,97570.00
2022-11-21T06:48:38.286Z,97573.00
2022-11-21T06:51:26.456Z,97568.00
2022-11-21T06:54:16.930Z,97571.00
2022-11-21T06:57:04.682Z,97573.00
2022-11-21T06:59:52.076Z,97574.00
2022-11-21T07:02:39.826Z,97574.00
2022-11-21T07:05:27.677Z,97577.00
2022-11-21T07:08:15.758Z,97582.00
2022-11-21T07:11:28.531Z,97586.00
2022-11-21T07:14:17.975Z,97586.00
2022-11-21T07:17:05.396Z,97584.00
2022-11-21T07:19:52.959Z,97581.00
2022-11-21T07:22:40.367Z,97582.00
2022-11-21T07:25:30.303Z,97585.00
2022-11-21T07:28:22.002Z,97582.00
2022-11-21T07:31:13.755Z,97583.00
2022-11-21T07:34:01.746Z,97585.00
2022-11-21T07:36:49.158Z,97585.00
2022-11-21T07:39:36.685Z,97596.00
2022-11-21T07:42:24.189Z,97598.00
2022-11-21T07:45:12.855Z,97595.00
2022-11-21T07:48:02.304Z,97597.00
2022-11-21T07:50:49.806Z,97604.00
2022-11-21T07:53:37.696Z,97601.00
2022-11-21T07:56:26.715Z,97609.00
2022-11-21T07:59:14.218Z,97609.00
2022-11-21T08:02:01.845Z,97604.00
2022-11-21T08:04:49.831Z,97605.00
2022-11-21T08:07:37.667Z,97598.00
2022-11-21T08:10:25.102Z,97598.00
2022-11-21T08:13:14.104Z,97601.00
2022-11-21T08:16:06.334Z,97600.00
2022-11-21T08:18:54.504Z,97598.00
2022-11-21T08:21:42.018Z,97598.00
2022-11-21T08:24:29.524Z,97591.00
2022-11-21T08:27:20.773Z,97601.00
2022-11-21T08:30:11.616Z,97602.00
2022-11-21T08:33:00.199Z,97608.00
2022-11-21T08:35:47.637Z,97604.00
2022-11-21T08:38:35.147Z,97607.00
2022-11-21T08:41:41.263Z,97603.00
2022-11-21T08:44:34.156Z,97619.00
2022-11-21T08:47:21.710Z,97633.00
2022-11-21T08:50:09.563Z,97635.00
2022-11-21T08:53:01.950Z,97640.00
2022-11-21T08:55:49.594Z,97647.00
2022-11-21T08:58:37.033Z,97654.00
2022-11-21T09:01:24.657Z,97665.00
2022-11-21T09:04:12.232Z,97666.00
2022-11-21T09:07:00.924Z,97659.00
2022-11-21T09:09:48.475Z,97662.00
2022-11-21T09:12:35.946Z,97668.00
2022-11-21T09:15:42.097Z,97671.00
2022-11-21T09:18:29.754Z,97675.00
2022-11-21T09:21:18.506Z,97669.00
2022-11-21T09:24:06.197Z,97674.00
2022-11-21T09:26:53.618Z,97671.00
2022-11-21T09:29:41.073Z,97666.00
2022-11-21T09:32:28.612Z,97663.00
2022-11-21T09:35:16.197Z,97668.00
2022-11-21T09:38:04.601Z,97663.00
2022-11-21T09:40:52.186Z,97661.00
2022-11-21T09:44:33.304Z,97671.00
2022-11-21T09:47:28.362Z,97679.00
2022-11-21T09:50:15.817Z,97680.00
2022-11-21T09:53:33.872Z,97680.00
2022-11-21T09:56:23.824Z,97679.00
2022-11-21T09:59:37.576Z,97677.00
2022-11-21T10:02:25.942Z,97677.00
2022-11-21T10:05:15.243Z,97675.00
2022-11-21T10:08:16.693Z,97672.00
2022-11-21T10:12:19.758Z,97662.00
2022-11-21T10:15:48.872Z,97663.00
2022-11-21T10:19:11.577Z,97662.00
2022-11-21T10:22:17.966Z,97670.00
2022-11-21T10:25:26.865Z,97668.00
2022-11-21T10:28:46.482Z,97656.00
2022-11-21T10:31:40.413Z,97652.00
2022-11-21T10:34:36.014Z,97647.00
2022-11-21T10:38:01.872Z,97650.00
2022-11-21T10:41:03.657Z,97642.00
2022-11-21T10:44:33.219Z,97642.00
2022-11-21T10:47:28.133Z,97637.00
2022-11-21T10:51:06.611Z,97633.00
2022-11-21T10:54:32.748Z,97639.00
2022-11-21T10:57:21.086Z,97636.00
2022-11-21T11:00:17.749Z,97639.00
2022-11-21T11:03:16.744Z,97633.00
2022-11-21T11:06:04.240Z,97644.00
2022-11-21T11:08:53.996Z,97651.00
2022-11-21T11:11:41.454Z,97653.00
2022-11-21T11:14:33.146Z,97659.00
2022-11-21T11:17:33.617Z,97653.00
2022-11-21T11:20:44.001Z,97647.00
2022-11-21T11:23:31.431Z,97632.00
2022-11-21T11:26:25.581Z,97628.00
2022-11-21T11:29:20.377Z,97619.00
2022-11-21T11:32:21.949Z,97612.00
2022-11-21T11:35:12.401Z,97609.00
2022-11-21T11:38:04.317Z,97615.00
2022-11-21T11:40:53.263Z,97620.00
2022-11-21T11:44:34.181Z,97616.00
2022-11-21T11:47:31.515Z,97624.00
2022-11-21T11:50:47.621Z,97620.00
2022-11-21T11:53:47.941Z,97611.00
2022-11-21T11:56:38.676Z,97598.00
2022-11-21T11:59:38.564Z,97599.00
2022-11-21T12:02:42.758Z,97597.00
2022-11-21T12:05:32.732Z,97596.00
2022-11-21T12:08:42.834Z,97593.00
2022-11-21T12:12:06.983Z,97585.00
2022-11-21T12:15:40.208Z,97578.00
2022-11-21T12:18:40.991Z,97578.00
2022-11-21T12:21:29.533Z,97579.00
2022-11-21T12:24:21.041Z,97590.00
2022-11-21T12:27:31.492Z,97575.00
2022-11-21T12:30:43.832Z,97579.00
2022-11-21T12:33:39.961Z,97572.00
2022-11-21T12:36:38.246Z,97574.00
2022-11-21T12:40:21.042Z,97581.00
2022-11-21T12:43:29.493Z,97582.00
2022-11-21T12:46:51.324Z,97577.00
2022-11-21T12:50:38.026Z,97576.00
2022-11-21T12:54:06.224Z,97579.00
2022-11-21T12:57:25.917Z,97577.00
2022-11-21T13:01:20.842Z,97575.00
2022-11-21T13:04:25.207Z,97564.00
2022-11-21T13:07:13.858Z,97549.00
2022-11-21T13:10:05.427Z,97553.00
2022-11-21T13:13:09.041Z,97535.00
2022-11-21T13:16:15.959Z,97533.00
2022-11-21T13:19:24.571Z,97527.00
2022-11-21T13:22:44.523Z,97528.00
2022-11-21T13:25:39.292Z,97533.00
2022-11-21T13:28:35.286Z,97529.00
2022-11-21T13:31:34.523Z,97526.00
2022-11-21T13:34:49.589Z,97522.00
2022-11-21T13:38:04.576Z,97518.00
2022-11-21T13:41:11.100Z,97526.00
2022-11-21T13:44:32.790Z,97517.00
2022-11-21T13:47:25.761Z,97525.00
2022-11-21T13:50:49.297Z,97514.00
2022-11-21T13:54:04.261Z,97516.00
2022-11-21T13:57:22.133Z,97500.00
2022-11-21T14:00:34.421Z,97510.00
2022-11-21T14:03:40.296Z,97495.00
2022-11-21T14:06:43.608Z,97491.00
2022-11-21T14:09:51.141Z,97495.00
2022-11-21T14:12:44.820Z,97487.00
2022-11-21T14:15:52.783Z,97490.00
2022-11-21T14:18:45.012Z,97489.00
2022-11-21T14:21:34.458Z,97493.00
2022-11-21T14:24:22.281Z,97490.00
2022-11-21T14:27:25.689Z,97487.00
2022-11-21T14:30:37.734Z,97488.00
2022-11-21T14:33:42.102Z,97481.00
2022-11-21T14:36:30.517Z,97487.00
2022-11-21T14:42:36.818Z,97484.00
2022-11-21T14:45:25.206Z,97479.00
2022-11-21T14:48:13.313Z,97476.00
2022-11-21T14:51:01.865Z,97479.00
2022-11-21T14:53:53.021Z,97482.00
2022-11-21T14:56:41.794Z,97473.00
2022-11-21T14:59:40.881Z,97471.00
2022-11-21T15:02:32.076Z,97465.00
2022-11-21T15:05:40.419Z,97463.00
2022-11-21T15:11:51.337Z,97466.00
2022-11-21T15:14:55.003Z,97463.00
2022-11-21T15:18:10.189Z,97460.00
2022-11-21T15:21:01.718Z,97466.00
2022-11-21T15:23:51.628Z,97464.00
2022-11-21T15:26:41.197Z,97457.00
2022-11-21T15:29:31.080Z,97456.00
2022-11-21T15:32:18.842Z,97447.00
2022-11-21T15:35:51.653Z,97453.00
2022-11-21T15:39:00.992Z,97446.00
2022-11-21T15:41:48.582Z,97440.00
2022-11-21T15:44:36.208Z,97439.00
2022-11-21T15:47:23.776Z,97432.00
2022-11-21T15:50:11.313Z,97433.00
2022-11-21T15:52:59.190Z,97424.00
2022-11-21T15:55:47.236Z,97427.00
2022-11-21T15:58:34.893Z,97424.00
2022-11-21T16:01:29.977Z,97420.00
2022-11-21T16:04:23.954Z,97420.00
2022-11-21T16:07:13.146Z,97419.00
2022-11-21T16:10:00.650Z,97412.00
2022-11-21T16:12:48.635Z,97405.00
2022-11-21T16:15:36.933Z,97398.00
2022-11-21T16:18:24.472Z,97404.00
2022-11-21T16:21:12.862Z,97392.00
2022-11-21T16:24:00.467Z,97390.00
2022-11-21T16:26:49.703Z,97393.00
2022-11-21T16:29:37.237Z,97396.00
2022-11-21T16:32:28.071Z,97395.00
2022-11-21T16:35:15.572Z,97385.00
2022-11-21T16:38:03.051Z,97386.00
2022-11-21T16:41:03.742Z,97379.00
2022-11-21T16:43:54.533Z,97378.00
2022-11-21T16:46:44.672Z,97374.00
2022-11-21T16:49:32.621Z,97374.00
2022-11-21T16:52:20.337Z,97373.00
2022-11-21T16:55:08.086Z,97360.00
2022-11-21T16:57:58.013Z,97360.00
2022-11-21T17:00:45.610Z,97350.00
2022-11-21T17:03:33.291Z,97348.00
2022-11-21T17:06:27.216Z,97349.00
2022-11-21T17:09:18.109Z,97339.00
2022-11-21T17:12:06.332Z,97344.00
2022-11-21T17:14:54.957Z,97345.00
2022-11-21T17:17:42.667Z,97336.00
2022-11-21T17:20:30.125Z,97349.00
2022-11-21T17:23:17.601Z,97340.00
2022-11-21T17:26:08.040Z,97350.00
2022-11-21T17:29:05.371Z,97349.00
2022-11-21T17:31:53.211Z,97345.00
2022-11-21T17:34:40.753Z,97340.00
2022-11-21T17:37:28.298Z,97344.00
2022-11-21T17:40:16.109Z,97347.00
2022-11-21T17:43:03.816Z,97336.00
2022-11-21T17:45:51.457Z,97330.00
2022-11-21T17:48:40.107Z,97319.00
2022-11-21T17:51:34.553Z,97316.00
2022-11-21T17:54:22.251Z,97315.00
2022-11-21T17:57:09.745Z,97309.00
2022-11-21T17:59:57.341Z,97301.00
2022-11-21T18:02:44.969Z,97310.00
2022-11-21T18:05:32.636Z,97307.00
2022-11-21T18:08:20.160Z,97297.00
2022-11-21T18:11:11.083Z,97297.00
2022-11-21T18:13:59.176Z,97297.00
2022-11-21T18:16:52.733Z,97295.00
2022-11-21T18:19:40.961Z,97295.00
2022-11-21T18:22:29.715Z,97291.00
2022-11-21T18:25:17.986Z,97280.00
2022-11-21T18:28:06.330Z,97269.00
2022-11-21T18:30:53.781Z,97272.00
2022-11-21T18:33:42.811Z,97258.00
2022-11-21T18:36:32.011Z,97258.00
2022-11-21T18:39:19.581Z,97245.00
2022-11-21T18:42:07.623Z,97230.00
2022-11-21T18:44:55.187Z,97228.00
2022-11-21T18:47:42.940Z,97223.00
2022-11-21T18:50:30.491Z,97214.00
2022-11-21T18:53:18.013Z,97203.00
2022-11-21T18:56:11.372Z,97197.00
2022-11-21T18:58:59.534Z,97191.00
2022-11-21T19:01:47.616Z,97193.00
2022-11-21T19:04:35.392Z,97195.00
2022-11-21T19:07:22.942Z,97192.00
2022-11-21T19:10:41.920Z,97194.00
2022-11-21T19:13:19.112Z,97183.00
2022-11-21T19:16:12.728Z,97187.00
2022-11-21T19:22:09.766Z,97177.00
2022-11-21T19:24:57.263Z,97178.00
2022-11-21T19:27:44.766Z,97172.00
2022-11-21T19:30:32.426Z,97171.00
2022-11-21T19:33:20.046Z,97176.00
2022-11-21T19:36:13.917Z,97174.00
2022-11-21T19:39:01.326Z,97163.00
2022-11-21T19:41:49.707Z,97167.00
2022-11-21T19:44:37.224Z,97168.00
2022-11-21T19:47:25.241Z,97166.00
2022-11-21T19:50:13.042Z,97161.00
2022-11-21T19:53:00.714Z,97155.00
2022-11-21T19:55:48.303Z,97163.00
2022-11-21T19:58:36.219Z,97157.00
2022-11-21T20:01:27.757Z,97153.00
2022-11-21T20:04:15.202Z,97150.00
2022-11-21T20:07:07.507Z,97152.00
2022-11-21T20:09:55.611Z,97154.00
2022-11-21T20:12:43.133Z,97149.00
2022-11-21T20:15:30.575Z,97137.00
2022-11-21T20:18:18.487Z,97126.00
2022-11-21T20:21:11.091Z,97131.00
2022-11-21T20:23:59.636Z,97119.00
2022-11-21T20:26:47.555Z,97112.00
2022-11-21T20:29:35.074Z,97111.00
2022-11-21T20:32:22.516Z,97114.00
2022-11-21T20:35:10.271Z,97109.00
2022-11-21T20:37:58.112Z,97094.00
2022-11-21T20:40:52.787Z,97080.00
2022-11-21T20:44:24.454Z,97074.00
2022-11-21T20:46:48.833Z,97078.00
2022-11-21T20:49:36.751Z,97071.00
2022-11-21T20:53:49.786Z,97064.00
2022-11-21T20:55:32.193Z,97061.00
2022-11-21T20:58:19.768Z,97053.00
2022-11-21T21:01:11.706Z,97056.00
2022-11-21T21:03:59.470Z,97054.00
2022-11-21T21:06:46.982Z,97048.00
2022-11-21T21:09:34.546Z,97038.00
2022-11-21T21:12:22.244Z,97033.00
2022-11-21T21:15:13.153Z,97036.00
2022-11-21T21:18:00.614Z,97026.00
2022-11-21T21:21:09.800Z,97025.00
2022-11-21T21:24:03.097Z,97013.00
2022-11-21T21:26:51.404Z,97019.00
2022-11-21T21:29:38.936Z,97017.00
2022-11-21T21:32:26.512Z,97002.00
2022-11-21T21:35:14.205Z,97006.00
2022-11-21T21:38:04.938Z,97010.00
2022-11-21T21:40:56.461Z,97004.00
2022-11-21T21:43:43.957Z,97006.00
2022-11-21T21:46:31.450Z,97002.00
2022-11-21T21:49:19.031Z,97000.00
2022-11-21T21:52:07.209Z,96984.00
2022-11-21T21:54:54.841Z,96979.00
2022-11-21T21:57:48.280Z,96967.00
2022-11-21T22:00:38.771Z,96973.00
2022-11-21T22:03:26.351Z,96962.00
2022-11-21T22:06:18.717Z,96962.00
2022-11-21T22:09:06.456Z,96963.00
2022-11-21T22:11:54.293Z,96958.00
2022-11-21T22:14:42.031Z,96960.00
2022-11-21T22:17:29.751Z,96951.00
2022-11-21T22:20:17.487Z,96940.00
2022-11-21T22:23:05.531Z,96935.00
2022-11-21T22:25:57.711Z,96927.00
2022-11-21T22:28:45.788Z,96927.00
2022-11-21T22:31:34.221Z,96926.00
2022-11-21T22:34:22.739Z,96922.00
2022-11-21T22:37:10.351Z,96922.00
2022-11-21T22:39:57.796Z,96913.00
2022-11-21T22:42:45.347Z,96907.00
2022-11-21T22:45:35.255Z,96902.00
2022-11-21T22:48:23.071Z,96899.00
2022-11-21T22:51:14.356Z,96897.00
2022-11-21T22:54:01.847Z,96890.00
2022-11-21T22:56:49.595Z,96898.00
2022-11-21T22:59:37.231Z,96894.00
2022-11-21T23:02:24.669Z,96890.00
2022-11-21T23:05:13.475Z,96881.00
2022-11-21T23:08:01.076Z,96872.00
2022-11-21T23:10:48.618Z,96868.00
2022-11-21T23:13:38.382Z,96862.00
2022-11-21T23:16:26.746Z,96853.00
2022-11-21T23:19:14.473Z,96839.00
2022-11-21T23:22:01.950Z,96838.00
2022-11-21T23:24:49.496Z,96825.00
2022-11-21T23:27:37.477Z,96826.00
2022-11-21T23:30:24.971Z,96813.00
2022-11-21T23:33:12.907Z,96808.00
2022-11-21T23:36:00.415Z,96812.00
2022-11-21T23:38:48.016Z,96814.00
2022-11-21T23:41:36.201Z,96809.00
2022-11-21T23:44:23.823Z,96808.00
2022-11-21T23:47:11.536Z,96813.00
2022-11-21T23:49:59.461Z,96810.00
2022-11-21T23:52:48.511Z,96818.00
2022-11-21T23:55:36.502Z,96822.00
2022-11-21T23:58:24.221Z,96818.00
